createdAt,value
2018-07-02T00:00:20.214Z,11.9
2018-07-02T00:01:20.952Z,11.8
2018-07-02T00:02:21.824Z,11.8
2018-07-02T00:03:22.552Z,11.7
2018-07-02T00:04:23.271Z,11.8
2018-07-02T00:05:23.999Z,11.7
2018-07-02T00:06:24.712Z,11.7
2018-07-02T00:07:25.434Z,11.8
2018-07-02T00:08:26.148Z,11.8
2018-07-02T00:09:26.870Z,11.8
2018-07-02T00:10:27.589Z,11.7
2018-07-02T00:11:28.305Z,11.8
2018-07-02T00:12:29.034Z,11.8
2018-07-02T00:13:29.762Z,11.7
2018-07-02T00:14:30.506Z,11.7
2018-07-02T00:15:31.215Z,11.7
2018-07-02T00:16:32.189Z,11.7
2018-07-02T00:17:33.302Z,11.7
2018-07-02T00:18:34.023Z,11.7
2018-07-02T00:19:34.738Z,11.8
2018-07-02T00:20:35.467Z,11.7
2018-07-02T00:21:36.488Z,11.7
2018-07-02T00:22:37.303Z,11.7
2018-07-02T00:23:38.045Z,11.7
2018-07-02T00:24:38.770Z,11.8
2018-07-02T00:25:39.488Z,11.7
2018-07-02T00:26:40.208Z,11.8
2018-07-02T00:27:41.328Z,11.6
2018-07-02T00:28:42.047Z,11.8
2018-07-02T00:29:42.781Z,11.7
2018-07-02T00:30:43.505Z,11.7
2018-07-02T00:31:44.470Z,11.7
2018-07-02T00:32:45.290Z,11.8
2018-07-02T00:33:46.401Z,11.8
2018-07-02T00:34:47.363Z,11.8
2018-07-02T00:35:48.124Z,11.7
2018-07-02T00:36:48.867Z,11.7
2018-07-02T00:37:49.747Z,11.8
2018-07-02T00:38:50.555Z,11.7
2018-07-02T00:39:51.479Z,11.7
2018-07-02T00:40:52.293Z,11.8
2018-07-02T00:41:53.033Z,11.8
2018-07-02T00:42:53.759Z,11.8
2018-07-02T00:43:54.474Z,11.8
2018-07-02T00:44:55.195Z,11.8
2018-07-02T00:45:55.926Z,11.8
2018-07-02T00:46:56.647Z,11.8
2018-07-02T00:47:57.369Z,11.8
2018-07-02T00:48:58.098Z,11.8
2018-07-02T00:49:58.801Z,11.9
2018-07-02T00:50:59.520Z,11.9
2018-07-02T00:52:00.250Z,11.9
2018-07-02T00:53:00.970Z,12.0
2018-07-02T00:54:01.695Z,12.0
2018-07-02T00:55:02.429Z,12.0
2018-07-02T00:56:03.148Z,12.0
2018-07-02T00:57:03.864Z,11.9
2018-07-02T00:58:04.582Z,12.0
2018-07-02T00:59:05.299Z,12.0
2018-07-02T01:00:06.030Z,12.0
2018-07-02T01:01:06.748Z,12.0
2018-07-02T01:02:07.464Z,12.0
2018-07-02T01:03:15.163Z,12.1
2018-07-02T01:04:15.878Z,12.1
2018-07-02T01:05:16.604Z,12.0
2018-07-02T01:06:17.318Z,12.1
2018-07-02T01:07:18.035Z,12.0
2018-07-02T01:08:18.806Z,12.0
2018-07-02T01:09:19.527Z,12.1
2018-07-02T01:10:20.242Z,11.9
2018-07-02T01:11:20.949Z,12.1
2018-07-02T01:12:21.674Z,12.1
2018-07-02T01:13:22.408Z,12.2
2018-07-02T01:14:23.129Z,12.2
2018-07-02T01:15:23.849Z,12.2
2018-07-02T01:16:24.569Z,12.2
2018-07-02T01:17:25.281Z,12.1
2018-07-02T01:18:25.998Z,12.3
2018-07-02T01:19:26.708Z,12.3
2018-07-02T01:20:27.436Z,12.4
2018-07-02T01:21:28.151Z,12.4
2018-07-02T01:22:28.866Z,12.5
2018-07-02T01:23:29.586Z,12.5
2018-07-02T01:24:30.305Z,12.5
2018-07-02T01:25:31.020Z,12.5
2018-07-02T01:26:31.733Z,12.4
2018-07-02T01:27:32.442Z,12.4
2018-07-02T01:28:33.179Z,12.5
2018-07-02T01:29:34.244Z,12.4
2018-07-02T01:30:34.965Z,12.5
2018-07-02T01:31:35.703Z,12.4
2018-07-02T01:32:36.414Z,12.4
2018-07-02T01:33:37.126Z,12.3
2018-07-02T01:34:38.249Z,12.3
2018-07-02T01:35:38.973Z,12.4
2018-07-02T01:36:39.696Z,12.3
2018-07-02T01:37:40.422Z,12.3
2018-07-02T01:38:41.136Z,12.4
2018-07-02T01:39:41.848Z,12.3
2018-07-02T01:40:42.570Z,12.3
2018-07-02T01:41:43.291Z,12.4
2018-07-02T01:42:44.007Z,12.3
2018-07-02T01:43:44.828Z,12.3
2018-07-02T01:44:45.558Z,12.3
2018-07-02T01:45:46.284Z,12.3
2018-07-02T01:46:47.544Z,12.3
2018-07-02T01:47:48.262Z,12.2
2018-07-02T01:48:49.292Z,12.2
2018-07-02T01:49:50.063Z,12.2
2018-07-02T01:50:50.855Z,12.2
2018-07-02T01:51:51.885Z,12.1
2018-07-02T01:52:53.084Z,12.1
2018-07-02T01:53:53.964Z,12.2
2018-07-02T01:54:54.802Z,12.1
2018-07-02T01:55:55.576Z,12.0
2018-07-02T01:56:56.332Z,12.1
2018-07-02T01:57:57.172Z,12.1
2018-07-02T01:58:57.937Z,12.0
2018-07-02T01:59:58.662Z,12.1
2018-07-02T02:00:59.387Z,12.2
2018-07-02T02:02:00.109Z,12.1
2018-07-02T02:03:00.825Z,12.2
2018-07-02T02:04:01.618Z,12.1
2018-07-02T02:05:02.333Z,12.1
2018-07-02T02:06:03.055Z,12.0
2018-07-02T02:07:03.772Z,12.2
2018-07-02T02:08:04.487Z,12.1
2018-07-02T02:09:05.217Z,12.2
2018-07-02T02:10:05.932Z,12.1
2018-07-02T02:11:06.664Z,12.3
2018-07-02T02:12:07.383Z,12.3
2018-07-02T02:13:08.103Z,12.3
2018-07-02T02:14:09.184Z,12.3
2018-07-02T02:15:09.905Z,12.3
2018-07-02T02:16:10.623Z,12.2
2018-07-02T02:17:11.349Z,12.2
2018-07-02T02:18:12.065Z,12.5
2018-07-02T02:19:12.772Z,12.5
2018-07-02T02:20:13.508Z,12.5
2018-07-02T02:21:14.225Z,12.6
2018-07-02T02:22:14.936Z,12.6
2018-07-02T02:23:15.670Z,12.6
2018-07-02T02:24:16.398Z,12.6
2018-07-02T02:25:17.112Z,12.4
2018-07-02T02:26:17.847Z,12.4
2018-07-02T02:27:18.568Z,12.4
2018-07-02T02:28:19.341Z,12.3
2018-07-02T02:29:20.059Z,12.4
2018-07-02T02:30:20.782Z,12.3
2018-07-02T02:31:21.511Z,12.3
2018-07-02T02:32:22.227Z,12.3
2018-07-02T02:33:22.944Z,12.2
2018-07-02T02:34:23.663Z,12.2
2018-07-02T02:35:24.373Z,12.2
2018-07-02T02:36:25.100Z,12.2
2018-07-02T02:37:26.084Z,12.2
2018-07-02T02:38:26.908Z,12.1
2018-07-02T02:39:27.612Z,12.0
2018-07-02T02:40:28.329Z,12.1
2018-07-02T02:41:29.051Z,12.0
2018-07-02T02:42:29.773Z,12.2
2018-07-02T02:43:30.499Z,12.1
2018-07-02T02:44:31.236Z,12.2
2018-07-02T02:45:32.056Z,12.1
2018-07-02T02:46:32.782Z,12.2
2018-07-02T02:47:33.579Z,12.1
2018-07-02T02:48:34.255Z,12.1
2018-07-02T02:49:34.969Z,12.1
2018-07-02T02:50:35.687Z,12.1
2018-07-02T02:51:36.411Z,12.1
2018-07-02T02:52:37.142Z,12.0
2018-07-02T02:53:37.847Z,12.1
2018-07-02T02:54:38.561Z,11.9
2018-07-02T02:55:39.284Z,12.0
2018-07-02T02:56:40.006Z,12.0
2018-07-02T02:57:40.724Z,12.0
2018-07-02T02:58:41.452Z,11.9
2018-07-02T02:59:42.174Z,11.9
2018-07-02T03:00:42.913Z,11.9
2018-07-02T03:01:44.099Z,11.8
2018-07-02T03:02:44.962Z,11.8
2018-07-02T03:03:45.788Z,11.8
2018-07-02T03:04:46.622Z,11.9
2018-07-02T03:05:47.364Z,11.9
2018-07-02T03:06:48.262Z,12.0
2018-07-02T03:07:49.076Z,12.0
2018-07-02T03:08:49.828Z,12.0
2018-07-02T03:09:50.917Z,12.1
2018-07-02T03:10:51.518Z,12.2
2018-07-02T03:11:52.378Z,12.1
2018-07-02T03:12:53.251Z,12.2
2018-07-02T03:13:54.063Z,12.2
2018-07-02T03:14:54.804Z,12.1
2018-07-02T03:15:56.026Z,12.1
2018-07-02T03:16:56.794Z,12.1
2018-07-02T03:17:57.615Z,12.0
2018-07-02T03:18:58.325Z,12.1
2018-07-02T03:19:59.474Z,12.0
2018-07-02T03:21:00.647Z,12.0
2018-07-02T03:22:01.418Z,11.9
2018-07-02T03:23:02.604Z,12.0
2018-07-02T03:24:03.350Z,12.1
2018-07-02T03:25:04.373Z,12.1
2018-07-02T03:26:05.362Z,12.2
2018-07-02T03:27:06.202Z,12.2
2018-07-02T03:28:06.917Z,12.2
2018-07-02T03:29:07.780Z,12.2
2018-07-02T03:30:08.807Z,12.3
2018-07-02T03:31:09.574Z,12.4
2018-07-02T03:32:10.321Z,12.4
2018-07-02T03:33:11.046Z,12.4
2018-07-02T03:34:11.760Z,12.5
2018-07-02T03:35:12.483Z,12.5
2018-07-02T03:36:13.207Z,12.6
2018-07-02T03:37:13.924Z,12.5
2018-07-02T03:38:14.660Z,12.6
2018-07-02T03:39:15.372Z,12.6
2018-07-02T03:40:16.100Z,12.7
2018-07-02T03:41:16.816Z,12.8
2018-07-02T03:42:17.544Z,12.9
2018-07-02T03:43:18.269Z,13.1
2018-07-02T03:44:18.995Z,13.2
2018-07-02T03:45:19.722Z,13.2
2018-07-02T03:46:20.447Z,13.3
2018-07-02T03:47:21.174Z,13.3
2018-07-02T03:48:21.896Z,13.2
2018-07-02T03:49:22.621Z,13.3
2018-07-02T03:50:23.334Z,13.4
2018-07-02T03:51:24.073Z,13.4
2018-07-02T03:52:24.793Z,13.3
2018-07-02T03:53:25.537Z,13.2
2018-07-02T03:54:26.258Z,13.2
2018-07-02T03:55:26.968Z,13.2
2018-07-02T03:56:27.708Z,13.2
2018-07-02T03:57:28.428Z,13.2
2018-07-02T03:58:29.151Z,13.1
2018-07-02T03:59:29.864Z,13.1
2018-07-02T04:00:30.600Z,13.2
2018-07-02T04:01:31.328Z,13.1
2018-07-02T04:02:32.452Z,13.1
2018-07-02T04:03:33.182Z,13.1
2018-07-02T04:04:33.905Z,13.1
2018-07-02T04:05:34.640Z,13.1
2018-07-02T04:06:35.370Z,13.1
2018-07-02T04:07:36.095Z,13.0
2018-07-02T04:08:36.814Z,12.9
2018-07-02T04:09:37.545Z,13.0
2018-07-02T04:10:38.328Z,12.9
2018-07-02T04:11:39.066Z,12.9
2018-07-02T04:12:39.788Z,12.9
2018-07-02T04:13:40.516Z,12.8
2018-07-02T04:14:41.228Z,12.8
2018-07-02T04:15:41.962Z,12.8
2018-07-02T04:16:42.679Z,12.8
2018-07-02T04:17:43.405Z,12.7
2018-07-02T04:18:44.134Z,12.8
2018-07-02T04:19:44.862Z,12.7
2018-07-02T04:20:45.600Z,12.6
2018-07-02T04:21:46.325Z,12.6
2018-07-02T04:22:47.053Z,12.6
2018-07-02T04:23:47.777Z,12.5
2018-07-02T04:24:48.550Z,12.5
2018-07-02T04:25:49.323Z,12.5
2018-07-02T04:26:50.000Z,12.5
2018-07-02T04:27:50.729Z,12.5
2018-07-02T04:28:51.454Z,12.5
2018-07-02T04:29:52.167Z,12.5
2018-07-02T04:30:52.900Z,12.4
2018-07-02T04:31:53.627Z,12.4
2018-07-02T04:32:54.346Z,12.5
2018-07-02T04:33:55.076Z,12.5
2018-07-02T04:34:55.798Z,12.5
2018-07-02T04:35:56.548Z,12.5
2018-07-02T04:36:57.267Z,12.5
2018-07-02T04:37:57.986Z,12.5
2018-07-02T04:38:58.704Z,12.4
2018-07-02T04:39:59.426Z,12.4
2018-07-02T04:41:00.164Z,12.4
2018-07-02T04:42:00.896Z,12.5
2018-07-02T04:43:01.616Z,12.4
2018-07-02T04:44:02.333Z,12.5
2018-07-02T04:45:03.057Z,12.4
2018-07-02T04:46:03.779Z,12.5
2018-07-02T04:47:04.504Z,12.5
2018-07-02T04:48:05.704Z,12.6
2018-07-02T04:49:05.959Z,12.5
2018-07-02T04:50:06.683Z,12.6
2018-07-02T04:51:07.408Z,12.5
2018-07-02T04:52:08.544Z,12.6
2018-07-02T04:53:09.258Z,12.6
2018-07-02T04:54:09.984Z,12.6
2018-07-02T04:55:10.717Z,12.7
2018-07-02T04:56:11.451Z,12.7
2018-07-02T04:57:12.168Z,12.7
2018-07-02T04:58:12.897Z,12.8
2018-07-02T04:59:13.624Z,12.8
2018-07-02T05:00:14.349Z,12.9
2018-07-02T05:01:15.073Z,13.0
2018-07-02T05:02:15.805Z,12.9
2018-07-02T05:03:16.527Z,13.0
2018-07-02T05:04:17.302Z,13.0
2018-07-02T05:05:18.034Z,13.1
2018-07-02T05:06:18.751Z,13.1
2018-07-02T05:07:19.468Z,13.1
2018-07-02T05:08:20.194Z,13.2
2018-07-02T05:09:20.980Z,13.3
2018-07-02T05:10:21.707Z,13.3
2018-07-02T05:11:22.434Z,13.4
2018-07-02T05:12:23.161Z,13.4
2018-07-02T05:13:23.893Z,13.4
2018-07-02T05:14:24.981Z,13.5
2018-07-02T05:15:25.701Z,13.6
2018-07-02T05:16:26.426Z,13.8
2018-07-02T05:17:27.143Z,13.9
2018-07-02T05:18:27.873Z,13.9
2018-07-02T05:19:28.600Z,14.0
2018-07-02T05:20:29.332Z,14.1
2018-07-02T05:21:30.070Z,14.2
2018-07-02T05:22:30.793Z,14.3
2018-07-02T05:23:31.794Z,14.4
2018-07-02T05:24:32.507Z,14.4
2018-07-02T05:25:33.225Z,14.5
2018-07-02T05:26:34.054Z,14.6
2018-07-02T05:27:34.779Z,14.8
2018-07-02T05:28:35.504Z,15.1
2018-07-02T05:29:36.629Z,15.3
2018-07-02T05:30:37.388Z,15.6
2018-07-02T05:31:38.138Z,15.9
2018-07-02T05:32:38.876Z,16.4
2018-07-02T05:33:39.621Z,16.6
2018-07-02T05:34:40.331Z,16.8
2018-07-02T05:35:41.060Z,17.1
2018-07-02T05:36:42.031Z,17.3
2018-07-02T05:37:42.761Z,17.5
2018-07-02T05:38:43.489Z,17.7
2018-07-02T05:39:44.202Z,17.7
2018-07-02T05:40:44.988Z,17.9
2018-07-02T05:41:45.809Z,18.0
2018-07-02T05:42:47.181Z,18.1
2018-07-02T05:43:47.995Z,18.2
2018-07-02T05:44:48.728Z,18.3
2018-07-02T05:45:49.881Z,18.3
2018-07-02T05:46:50.709Z,18.4
2018-07-02T05:47:51.478Z,18.5
2018-07-02T05:48:52.212Z,18.3
2018-07-02T05:49:52.936Z,18.4
2018-07-02T05:50:54.571Z,18.7
2018-07-02T05:51:55.384Z,18.8
2018-07-02T05:52:56.463Z,18.9
2018-07-02T05:53:57.445Z,19.1
2018-07-02T05:54:58.305Z,19.1
2018-07-02T05:55:59.541Z,19.2
2018-07-02T05:57:00.428Z,19.5
2018-07-02T05:58:01.150Z,19.4
2018-07-02T05:59:01.880Z,19.6
2018-07-02T06:00:02.622Z,19.7
2018-07-02T06:01:03.514Z,19.7
2018-07-02T06:02:04.233Z,19.7
2018-07-02T06:03:04.959Z,19.9
2018-07-02T06:04:05.693Z,19.9
2018-07-02T06:05:06.418Z,19.7
2018-07-02T06:06:07.191Z,19.7
2018-07-02T06:07:07.918Z,19.4
2018-07-02T06:08:08.709Z,19.6
2018-07-02T06:09:09.361Z,19.6
2018-07-02T06:10:10.089Z,19.9
2018-07-02T06:11:11.225Z,19.4
2018-07-02T06:12:11.953Z,19.1
2018-07-02T06:13:12.722Z,19.1
2018-07-02T06:14:13.411Z,19.0
2018-07-02T06:15:14.147Z,18.9
2018-07-02T06:16:14.873Z,18.7
2018-07-02T06:17:15.598Z,18.6
2018-07-02T06:18:16.327Z,18.5
2018-07-02T06:19:17.059Z,18.4
2018-07-02T06:20:17.785Z,18.5
2018-07-02T06:21:18.525Z,18.4
2018-07-02T06:22:19.257Z,18.4
2018-07-02T06:23:19.988Z,18.4
2018-07-02T06:24:20.957Z,18.4
2018-07-02T06:25:21.688Z,18.5
2018-07-02T06:26:22.414Z,18.7
2018-07-02T06:27:23.143Z,18.7
2018-07-02T06:28:23.884Z,18.8
2018-07-02T06:29:24.614Z,18.8
2018-07-02T06:30:25.379Z,18.9
2018-07-02T06:31:26.066Z,18.7
2018-07-02T06:32:26.795Z,18.8
2018-07-02T06:33:27.538Z,18.8
2018-07-02T06:34:28.267Z,18.8
2018-07-02T06:35:28.998Z,18.8
2018-07-02T06:36:29.725Z,19.0
2018-07-02T06:37:30.454Z,19.0
2018-07-02T06:38:31.181Z,18.9
2018-07-02T06:39:31.914Z,19.0
2018-07-02T06:40:32.635Z,18.9
2018-07-02T06:41:33.369Z,18.9
2018-07-02T06:42:34.102Z,19.0
2018-07-02T06:43:35.092Z,18.9
2018-07-02T06:44:35.818Z,19.1
2018-07-02T06:45:36.554Z,19.1
2018-07-02T06:46:37.546Z,19.0
2018-07-02T06:47:38.276Z,18.9
2018-07-02T06:48:39.062Z,19.1
2018-07-02T06:49:39.780Z,19.2
2018-07-02T06:50:40.517Z,19.2
2018-07-02T06:51:41.254Z,19.2
2018-07-02T06:52:41.988Z,19.4
2018-07-02T06:53:42.723Z,19.5
2018-07-02T06:54:43.453Z,19.5
2018-07-02T06:55:44.179Z,19.5
2018-07-02T06:56:44.903Z,19.4
2018-07-02T06:57:45.651Z,19.5
2018-07-02T06:58:46.443Z,19.2
2018-07-02T06:59:47.108Z,19.4
2018-07-02T07:00:47.842Z,19.5
2018-07-02T07:01:48.575Z,19.6
2018-07-02T07:02:49.305Z,19.8
2018-07-02T07:03:50.033Z,19.9
2018-07-02T07:04:50.768Z,20.1
2018-07-02T07:05:51.497Z,19.7
2018-07-02T07:06:52.217Z,19.7
2018-07-02T07:07:52.947Z,19.9
2018-07-02T07:08:53.705Z,19.9
2018-07-02T07:09:54.433Z,19.9
2018-07-02T07:10:55.179Z,19.9
2018-07-02T07:11:55.908Z,19.9
2018-07-02T07:12:56.899Z,20.2
2018-07-02T07:13:57.629Z,20.3
2018-07-02T07:14:58.361Z,20.3
2018-07-02T07:15:59.092Z,20.5
2018-07-02T07:17:00.232Z,20.6
2018-07-02T07:18:00.956Z,20.9
2018-07-02T07:19:01.946Z,20.8
2018-07-02T07:20:02.683Z,21.0
2018-07-02T07:21:03.409Z,21.4
2018-07-02T07:22:04.200Z,21.6
2018-07-02T07:23:04.921Z,21.7
2018-07-02T07:24:05.684Z,22.0
2018-07-02T07:25:06.400Z,22.3
2018-07-02T07:26:07.133Z,21.7
2018-07-02T07:27:07.864Z,21.9
2018-07-02T07:28:08.829Z,21.9
2018-07-02T07:29:09.562Z,22.1
2018-07-02T07:30:10.286Z,22.1
2018-07-02T07:31:11.320Z,22.2
2018-07-02T07:32:11.995Z,22.5
2018-07-02T07:33:12.758Z,22.7
2018-07-02T07:34:13.461Z,22.8
2018-07-02T07:35:14.185Z,23.2
2018-07-02T07:36:14.940Z,23.9
2018-07-02T07:37:15.676Z,24.0
2018-07-02T07:38:16.411Z,24.5
2018-07-02T07:39:17.138Z,24.7
2018-07-02T07:40:17.881Z,25.0
2018-07-02T07:41:18.609Z,25.1
2018-07-02T07:42:19.331Z,25.1
2018-07-02T07:43:20.062Z,25.2
2018-07-02T07:44:20.786Z,25.4
2018-07-02T07:45:21.774Z,26.4
2018-07-02T07:46:22.520Z,26.4
2018-07-02T07:47:23.243Z,27.0
2018-07-02T07:48:23.980Z,26.0
2018-07-02T07:49:24.708Z,26.9
2018-07-02T07:50:25.449Z,27.2
2018-07-02T07:51:26.437Z,27.7
2018-07-02T07:52:27.195Z,27.7
2018-07-02T07:53:27.918Z,28.2
2018-07-02T07:54:28.643Z,28.6
2018-07-02T07:55:29.975Z,28.5
2018-07-02T07:56:30.710Z,28.7
2018-07-02T07:57:31.444Z,28.9
2018-07-02T07:58:32.424Z,29.3
2018-07-02T07:59:33.238Z,29.0
2018-07-02T08:00:33.894Z,28.8
2018-07-02T08:01:34.631Z,29.3
2018-07-02T08:02:35.350Z,28.7
2018-07-02T08:03:36.113Z,28.1
2018-07-02T08:04:36.830Z,28.1
2018-07-02T08:05:37.741Z,28.0
2018-07-02T08:06:38.472Z,28.2
2018-07-02T08:07:39.208Z,28.0
2018-07-02T08:08:39.938Z,28.7
2018-07-02T08:09:40.682Z,29.0
2018-07-02T08:10:41.404Z,29.5
2018-07-02T08:11:42.148Z,29.6
2018-07-02T08:12:42.876Z,29.7
2018-07-02T08:13:43.869Z,29.8
2018-07-02T08:14:44.607Z,29.5
2018-07-02T08:15:45.343Z,29.7
2018-07-02T08:16:46.077Z,29.4
2018-07-02T08:17:46.800Z,29.3
2018-07-02T08:18:47.776Z,28.7
2018-07-02T08:19:48.522Z,28.6
2018-07-02T08:20:49.248Z,29.0
2018-07-02T08:21:49.983Z,29.0
2018-07-02T08:22:50.729Z,29.2
2018-07-02T08:23:51.517Z,29.1
2018-07-02T08:24:52.258Z,29.1
2018-07-02T08:25:53.000Z,28.6
2018-07-02T08:26:53.735Z,28.7
2018-07-02T08:27:54.471Z,28.5
2018-07-02T08:28:55.256Z,28.0
2018-07-02T08:29:55.992Z,28.5
2018-07-02T08:30:56.731Z,28.8
2018-07-02T08:31:57.465Z,29.1
2018-07-02T08:32:58.281Z,29.3
2018-07-02T08:33:58.942Z,28.6
2018-07-02T08:34:59.683Z,28.6
2018-07-02T08:36:00.425Z,28.1
2018-07-02T08:37:01.162Z,28.4
2018-07-02T08:38:01.897Z,28.4
2018-07-02T08:39:02.875Z,28.5
2018-07-02T08:40:03.856Z,28.2
2018-07-02T08:41:04.592Z,28.1
2018-07-02T08:42:05.330Z,28.5
2018-07-02T08:43:06.065Z,28.8
2018-07-02T08:44:06.806Z,28.8
2018-07-02T08:45:07.547Z,28.2
2018-07-02T08:46:08.282Z,28.1
2018-07-02T08:47:09.014Z,28.0
2018-07-02T08:48:09.744Z,28.1
2018-07-02T08:49:10.471Z,28.3
2018-07-02T08:50:11.201Z,28.6
2018-07-02T08:51:11.943Z,28.0
2018-07-02T08:52:12.931Z,28.4
2018-07-02T08:53:13.908Z,27.8
2018-07-02T08:54:14.647Z,27.4
2018-07-02T08:55:15.381Z,27.7
2018-07-02T08:56:16.114Z,27.6
2018-07-02T08:57:16.895Z,28.1
2018-07-02T08:58:17.681Z,28.2
2018-07-02T08:59:18.382Z,28.2
2018-07-02T09:00:19.116Z,27.7
2018-07-02T09:01:19.853Z,27.7
2018-07-02T09:02:20.640Z,28.2
2018-07-02T09:03:21.372Z,27.9
2018-07-02T09:04:22.102Z,28.0
2018-07-02T09:05:22.826Z,28.1
2018-07-02T09:06:23.577Z,28.5
2018-07-02T09:07:24.311Z,28.0
2018-07-02T09:08:25.041Z,27.7
2018-07-02T09:09:25.780Z,27.8
2018-07-02T09:10:26.508Z,28.0
2018-07-02T09:11:27.239Z,28.0
2018-07-02T09:12:27.974Z,28.2
2018-07-02T09:13:28.705Z,27.8
2018-07-02T09:14:29.443Z,28.0
2018-07-02T09:15:30.184Z,27.9
2018-07-02T09:16:31.166Z,28.1
2018-07-02T09:17:31.901Z,28.4
2018-07-02T09:18:32.788Z,28.3
2018-07-02T09:19:33.524Z,28.0
2018-07-02T09:20:34.257Z,27.3
2018-07-02T09:21:35.000Z,26.9
2018-07-02T09:22:35.738Z,27.0
2018-07-02T09:23:36.858Z,27.4
2018-07-02T09:24:37.597Z,27.7
2018-07-02T09:25:38.335Z,27.8
2018-07-02T09:26:39.068Z,27.5
2018-07-02T09:27:39.800Z,27.6
2018-07-02T09:28:40.882Z,27.7
2018-07-02T09:29:41.621Z,27.9
2018-07-02T09:30:42.348Z,28.1
2018-07-02T09:31:43.082Z,27.9
2018-07-02T09:32:44.079Z,28.1
2018-07-02T09:33:44.831Z,27.5
2018-07-02T09:34:45.562Z,27.7
2018-07-02T09:35:46.294Z,27.7
2018-07-02T09:36:47.038Z,27.8
2018-07-02T09:37:47.768Z,27.9
2018-07-02T09:38:48.521Z,28.3
2018-07-02T09:39:49.239Z,28.4
2018-07-02T09:40:49.973Z,28.4
2018-07-02T09:41:50.702Z,28.1
2018-07-02T09:42:51.442Z,28.4
2018-07-02T09:43:52.234Z,28.4
2018-07-02T09:44:52.968Z,28.2
2018-07-02T09:45:53.731Z,27.7
2018-07-02T09:46:54.439Z,27.7
2018-07-02T09:47:55.191Z,27.9
2018-07-02T09:48:55.980Z,28.1
2018-07-02T09:49:56.657Z,28.3
2018-07-02T09:50:57.392Z,28.6
2018-07-02T09:51:58.413Z,28.0
2018-07-02T09:52:59.119Z,27.8
2018-07-02T09:54:00.123Z,27.8
2018-07-02T09:55:00.857Z,27.8
2018-07-02T09:56:01.599Z,27.9
2018-07-02T09:57:02.348Z,28.0
2018-07-02T09:58:03.092Z,28.2
2018-07-02T09:59:03.826Z,28.1
2018-07-02T10:00:04.570Z,28.2
2018-07-02T10:01:05.306Z,28.6
2018-07-02T10:02:06.288Z,28.6
2018-07-02T10:03:07.071Z,28.7
2018-07-02T10:04:07.809Z,28.5
2018-07-02T10:05:08.793Z,28.8
2018-07-02T10:06:09.533Z,28.8
2018-07-02T10:07:10.255Z,28.7
2018-07-02T10:08:10.990Z,28.4
2018-07-02T10:09:11.723Z,28.2
2018-07-02T10:10:12.912Z,27.9
2018-07-02T10:11:13.597Z,28.0
2018-07-02T10:12:14.360Z,27.7
2018-07-02T10:13:15.089Z,27.8
2018-07-02T10:14:15.823Z,28.3
2018-07-02T10:15:16.560Z,28.6
2018-07-02T10:16:17.296Z,28.8
2018-07-02T10:17:18.035Z,28.7
2018-07-02T10:18:18.760Z,28.5
2018-07-02T10:19:19.499Z,27.6
2018-07-02T10:20:20.259Z,27.8
2018-07-02T10:21:20.970Z,27.9
2018-07-02T10:22:21.705Z,28.3
2018-07-02T10:23:22.701Z,28.7
2018-07-02T10:24:23.435Z,29.0
2018-07-02T10:25:24.185Z,28.8
2018-07-02T10:26:24.915Z,28.8
2018-07-02T10:27:25.649Z,28.7
2018-07-02T10:28:26.641Z,28.7
2018-07-02T10:29:27.692Z,29.0
2018-07-02T10:30:28.369Z,29.2
2018-07-02T10:31:29.202Z,29.0
2018-07-02T10:32:29.908Z,28.9
2018-07-02T10:33:30.639Z,29.2
2018-07-02T10:34:31.385Z,29.4
2018-07-02T10:35:32.126Z,29.4
2018-07-02T10:36:32.859Z,29.7
2018-07-02T10:37:33.849Z,29.4
2018-07-02T10:38:34.589Z,29.5
2018-07-02T10:39:35.329Z,29.2
2018-07-02T10:40:36.077Z,29.1
2018-07-02T10:41:36.811Z,29.5
2018-07-02T10:42:37.543Z,29.4
2018-07-02T10:43:38.528Z,29.5
2018-07-02T10:44:39.266Z,30.0
2018-07-02T10:45:40.246Z,30.4
2018-07-02T10:46:40.983Z,30.8
2018-07-02T10:47:41.722Z,31.2
2018-07-02T10:48:42.455Z,31.1
2018-07-02T10:49:43.197Z,30.8
2018-07-02T10:50:43.938Z,30.6
2018-07-02T10:51:44.687Z,30.9
2018-07-02T10:52:45.427Z,30.6
2018-07-02T10:53:46.164Z,30.6
2018-07-02T10:54:46.903Z,30.8
2018-07-02T10:55:47.714Z,30.8
2018-07-02T10:56:48.390Z,30.7
2018-07-02T10:57:49.131Z,30.2
2018-07-02T10:58:49.853Z,30.2
2018-07-02T10:59:51.188Z,29.9
2018-07-02T11:00:51.927Z,29.8
2018-07-02T11:01:52.657Z,29.7
2018-07-02T11:02:53.402Z,29.8
2018-07-02T11:03:54.154Z,29.8
2018-07-02T11:04:55.283Z,30.0
2018-07-02T11:05:56.022Z,30.2
2018-07-02T11:06:56.755Z,30.1
2018-07-02T11:07:57.486Z,30.2
2018-07-02T11:08:58.215Z,29.6
2018-07-02T11:09:59.005Z,29.5
2018-07-02T11:10:59.743Z,29.7
2018-07-02T11:12:00.478Z,30.1
2018-07-02T11:13:01.216Z,30.4
2018-07-02T11:14:01.945Z,30.6
2018-07-02T11:15:02.690Z,30.7
2018-07-02T11:16:03.426Z,30.2
2018-07-02T11:17:04.198Z,29.9
2018-07-02T11:18:04.904Z,29.9
2018-07-02T11:19:05.647Z,30.0
2018-07-02T11:20:06.379Z,30.5
2018-07-02T11:21:07.133Z,30.9
2018-07-02T11:22:07.866Z,31.0
2018-07-02T11:23:08.613Z,31.0
2018-07-02T11:24:09.342Z,30.7
2018-07-02T11:25:10.082Z,30.5
2018-07-02T11:26:10.826Z,30.5
2018-07-02T11:27:11.574Z,30.2
2018-07-02T11:28:12.308Z,30.2
2018-07-02T11:29:13.296Z,30.3
2018-07-02T11:30:14.273Z,30.6
2018-07-02T11:31:15.025Z,30.9
2018-07-02T11:32:15.771Z,30.8
2018-07-02T11:33:16.509Z,31.4
2018-07-02T11:34:17.346Z,30.9
2018-07-02T11:35:18.092Z,31.4
2018-07-02T11:36:18.825Z,31.8
2018-07-02T11:37:19.571Z,31.5
2018-07-02T11:38:20.291Z,31.4
2018-07-02T11:39:21.042Z,31.4
2018-07-02T11:40:21.775Z,31.7
2018-07-02T11:41:22.521Z,31.5
2018-07-02T11:42:23.254Z,31.8
2018-07-02T11:43:23.984Z,31.5
2018-07-02T11:44:24.719Z,31.4
2018-07-02T11:45:25.450Z,30.9
2018-07-02T11:46:26.192Z,30.9
2018-07-02T11:47:26.928Z,30.9
2018-07-02T11:48:27.664Z,30.9
2018-07-02T11:49:28.397Z,30.6
2018-07-02T11:50:29.479Z,30.8
2018-07-02T11:51:30.215Z,30.9
2018-07-02T11:52:30.952Z,31.0
2018-07-02T11:53:31.937Z,31.4
2018-07-02T11:54:32.682Z,31.5
2018-07-02T11:55:33.466Z,31.9
2018-07-02T11:56:34.202Z,32.2
2018-07-02T11:57:34.938Z,32.5
2018-07-02T11:58:35.921Z,31.9
2018-07-02T11:59:36.655Z,31.2
2018-07-02T12:00:37.490Z,31.2
2018-07-02T12:01:38.219Z,31.0
2018-07-02T12:02:38.957Z,31.4
2018-07-02T12:03:39.715Z,31.3
2018-07-02T12:04:40.453Z,31.6
2018-07-02T12:05:41.536Z,31.8
2018-07-02T12:06:42.277Z,32.2
2018-07-02T12:07:43.016Z,32.1
2018-07-02T12:08:43.748Z,32.4
2018-07-02T12:09:44.488Z,32.5
2018-07-02T12:10:45.319Z,32.2
2018-07-02T12:11:46.072Z,32.1
2018-07-02T12:12:46.827Z,32.1
2018-07-02T12:13:47.556Z,32.0
2018-07-02T12:14:48.293Z,32.1
2018-07-02T12:15:49.050Z,31.0
2018-07-02T12:16:49.795Z,31.2
2018-07-02T12:17:50.532Z,31.5
2018-07-02T12:18:51.274Z,31.3
2018-07-02T12:19:52.010Z,31.5
2018-07-02T12:20:52.756Z,32.0
2018-07-02T12:21:53.482Z,32.0
2018-07-02T12:22:54.214Z,32.1
2018-07-02T12:23:54.958Z,32.4
2018-07-02T12:24:55.699Z,32.1
2018-07-02T12:25:56.427Z,31.4
2018-07-02T12:26:57.223Z,31.2
2018-07-02T12:27:57.958Z,31.2
2018-07-02T12:28:58.688Z,30.9
2018-07-02T12:29:59.431Z,30.8
2018-07-02T12:31:00.179Z,30.8
2018-07-02T12:32:00.913Z,31.0
2018-07-02T12:33:01.665Z,31.5
2018-07-02T12:34:02.392Z,31.8
2018-07-02T12:35:03.140Z,32.0
2018-07-02T12:36:04.275Z,31.6
2018-07-02T12:37:05.010Z,31.6
2018-07-02T12:38:05.748Z,31.5
2018-07-02T12:39:06.489Z,31.9
2018-07-02T12:40:07.225Z,31.8
2018-07-02T12:41:08.077Z,31.7
2018-07-02T12:42:08.801Z,31.5
2018-07-02T12:43:09.784Z,32.0
2018-07-02T12:44:10.523Z,32.2
2018-07-02T12:45:11.268Z,32.2
2018-07-02T12:46:12.018Z,32.4
2018-07-02T12:47:12.746Z,32.6
2018-07-02T12:48:13.482Z,32.7
2018-07-02T12:49:14.212Z,32.4
2018-07-02T12:50:14.952Z,32.7
2018-07-02T12:51:15.937Z,33.1
2018-07-02T12:52:17.069Z,33.5
2018-07-02T12:53:17.810Z,33.7
2018-07-02T12:54:18.614Z,34.1
2018-07-02T12:55:19.282Z,33.4
2018-07-02T12:56:20.013Z,33.3
2018-07-02T12:57:20.843Z,33.4
2018-07-02T12:58:21.582Z,33.5
2018-07-02T12:59:22.576Z,34.0
2018-07-02T13:00:23.324Z,34.1
2018-07-02T13:01:24.063Z,34.4
2018-07-02T13:02:24.807Z,34.4
2018-07-02T13:03:25.945Z,34.5
2018-07-02T13:04:26.677Z,34.6
2018-07-02T13:05:27.409Z,34.5
2018-07-02T13:06:28.154Z,34.8
2018-07-02T13:07:29.147Z,34.7
2018-07-02T13:08:29.980Z,34.8
2018-07-02T13:09:30.737Z,34.0
2018-07-02T13:10:31.479Z,33.7
2018-07-02T13:11:32.215Z,33.5
2018-07-02T13:12:32.946Z,33.9
2018-07-02T13:13:33.812Z,34.1
2018-07-02T13:14:34.483Z,33.9
2018-07-02T13:15:35.214Z,34.1
2018-07-02T13:16:35.956Z,33.9
2018-07-02T13:17:36.692Z,33.7
2018-07-02T13:18:37.481Z,33.6
2018-07-02T13:19:38.215Z,33.6
2018-07-02T13:20:38.992Z,33.8
2018-07-02T13:21:39.690Z,33.9
2018-07-02T13:22:40.426Z,33.8
2018-07-02T13:23:41.411Z,33.9
2018-07-02T13:24:42.162Z,34.3
2018-07-02T13:25:42.888Z,34.5
2018-07-02T13:26:43.631Z,33.9
2018-07-02T13:27:44.371Z,33.7
2018-07-02T13:28:45.223Z,33.7